San Diego/Miramar MCAS, California
Current Conditions -  °F | °C
As of 3:55 AM on Saturday 20 Dec 2014 (Local Time) from KNKX Reporting Station
Scattered Clouds Scattered Clouds  
Wind Chill: 47°   Ceiling: Unl
Heat Index: 49°   Visibility: 10mi
Dew Point: 45°   Wind: 6mph
Humidity: 86%   Direction: 60°ENE
Pressure: 30.13"   Gusts: NA
Location:  32.85°N, 117.12°W
Report Text: KNKX 201155Z 06005KT 10SM SCT180 09/07 A3013 RMK AO2 SLP201 T00940072 10122 20094 55009
Loading
Personal Weather Stations






























Interactive Weather Map New forecast layout! Learn more

10-Day Weather Forecast

Advertisements
Track Severe Weather on mobile